Airport View

Enter ICAO identifier to see the current METAR for that AWOS.

KFNL for example

KMLS 281353Z AUTO 12006KT 10SM CLR 19/12 A3030

28 Jul 2014 14:21

Frequency: 135.575

Phone: 406-232-1465

Other Area AWOS: KGDV - KBHK - KJDN - K20U

TAF KMLS 281120Z 2812/2912 16008KT P6SM SKC FM281900 08010KT P6SM SCT150